Aviation Digital Data Service (ADDS)

Output produced by METARs form (0602 UTC 25 June 2018)
found at http://www.aviationweather.gov/adds/metars/
 
METAR text: KSTL 250551Z 09007KT 10SM SCT200 BKN250 22/20 A2996 RMK AO2 SLP133 60000 T02220200 10250 20222 403000194 55005
Conditions at: KSTL (ST. LOUIS , MO, US) observed 0551 UTC 25 June 2018
Temperature: 22.2°C (72°F)
Dewpoint: 20.0°C (68°F) [RH = 87%]
Pressure (altimeter): 29.96 inches Hg (1014.6 mb)
[Sea-level pressure: 1013.3 mb]
Winds: from the E (90 degrees) at 8 MPH (7 knots; 3.6 m/s)
Visibility: 10 or more miles (16+ km)
Ceiling: 25000 feet AGL
Clouds: scattered clouds at 20000 feet AGL
broken clouds at 25000 feet AGL
Weather: no significant weather observed at this time